Time;durP1;ratioP1;P1;durP2;ratioP2;P2;SDS_P1;SDS_P2;PMS_P1;PMS_P2;Temp;Humidity;BMP_temperature;BMP_pressure;BME280_temperature;BME280_humidity;BME280_pressure;Samples;Min_cycle;Max_cycle;Signal;HPM_P1;HPM_P2
2022/05/23 00:02:39;;;;;;;;;32.00;29.00;;;;;-146.59;100.00;59519.28;2;157570789;157570789;-59
2022/05/23 00:09:47;;;;;;;;;29.50;25.00;;;;;-146.59;100.00;59519.28;3;130573048;139563652;-59
2022/05/23 00:15:03;;;;;;;;;;;;;;;-146.59;100.00;59519.28;2;157571219;157571219;-58
2022/05/23 00:22:11;;;;;;;;;48.50;37.50;;;;;-146.59;100.00;59519.28;3;130573323;139564404;-58
2022/05/23 00:27:25;;;;;;;;;;;;;;;-146.59;100.00;59519.28;2;157568991;157568991;-57
2022/05/23 00:40:07;;;;;;;;;;;;;;;-146.59;100.00;59519.28;2;157569424;157569424;-60
2022/05/23 00:47:22;;;;;;;;;48.00;41.50;;;;;-146.59;100.00;59519.28;3;130572139;139563425;-56
2022/05/23 00:52:50;;;;;;;;;50.00;40.00;;;;;-146.59;100.00;59519.28;2;157571274;157571274;-59
2022/05/23 00:59:58;;;;;;;;;45.00;37.50;;;;;-146.59;100.00;59519.28;3;130571769;139560690;-58
2022/05/23 01:05:12;;;;;;;;;;;;;;;-146.59;100.00;59519.28;2;157568017;157568017;-58
2022/05/23 01:12:21;;;;;;;;;45.00;37.50;;;;;-146.59;100.00;59519.28;3;130569565;139560188;-59
2022/05/23 01:17:36;;;;;;;;;;;;;;;-146.59;100.00;59519.28;2;157569967;157569967;-57
2022/05/23 01:24:50;;;;;;;;;51.50;42.00;;;;;-146.59;100.00;59519.28;3;130568842;139561824;-56
2022/05/23 01:30:05;;;;;;;;;;;;;;;-146.59;100.00;59519.28;2;157568101;157568101;-58
2022/05/23 01:37:12;;;;;;;;;32.00;30.00;;;;;-146.59;100.00;59519.28;3;130572464;139563365;-55
2022/05/23 01:41:58;;;;;;;;;;;;;;;-146.59;100.00;59519.28;2;157567259;157567259;-58
2022/05/23 01:44:43;;;;;;;;;35.75;30.00;;;;;-146.59;100.00;59519.28;5061137;28;317817;-58
2022/05/23 01:47:27;;;;;;;;;40.25;33.00;;;;;-146.59;100.00;59519.28;5097492;28;8783;-57
2022/05/23 01:50:12;;;;;;;;;39.25;32.00;;;;;-146.59;100.00;59519.28;5097180;28;8795;-57
2022/05/23 01:52:58;;;;;;;;;44.00;33.00;;;;;-146.59;100.00;59519.28;5098333;28;9094;-58
2022/05/23 01:55:43;;;;;;;;;44.00;36.00;;;;;-146.59;100.00;59519.28;5098489;28;8838;-57
2022/05/23 02:01:31;;;;;;;;;41.75;34.25;;;;;-146.59;100.00;59519.28;5098219;28;8791;-57
2022/05/23 02:04:15;;;;;;;;;35.25;31.00;;;;;-146.59;100.00;59519.28;5097931;28;8791;-56
2022/05/23 02:07:01;;;;;;;;;35.00;32.00;;;;;-146.59;100.00;59519.28;5097838;28;8780;-57
2022/05/23 02:09:45;;;;;;;;;38.25;32.00;;;;;-146.59;100.00;59519.28;5097532;28;8842;-56
2022/05/23 02:12:30;;;;;;;;;32.00;30.00;;;;;-146.59;100.00;59519.28;5098245;28;8803;-57
2022/05/23 02:15:15;;;;;;;;;31.00;28.00;;;;;-146.59;100.00;59519.28;5098016;28;8831;-57
2022/05/23 02:18:03;;;;;;;;;29.25;25.25;;;;;-146.59;100.00;59519.28;5098176;28;8783;-57
2022/05/23 02:20:48;;;;;;;;;31.25;23.50;;;;;-146.59;100.00;59519.28;5098069;28;8783;-57
2022/05/23 02:23:34;;;;;;;;;27.25;21.75;;;;;-146.59;100.00;59519.28;5075629;28;8932;-57
2022/05/23 02:26:19;;;;;;;;;25.00;22.00;;;;;-146.59;100.00;59519.28;5095099;28;9413;-60
2022/05/23 02:29:04;;;;;;;;;28.25;24.75;;;;;-146.59;100.00;59519.28;5098129;28;8791;-57
2022/05/23 02:31:48;;;;;;;;;23.50;22.50;;;;;-146.59;100.00;59519.28;5097400;28;8772;-58
2022/05/23 02:37:43;;;;;;;;;;;;;;;-146.59;100.00;59519.28;1407366;28;157569013;-56
2022/05/23 02:44:50;;;;;;;;;17.00;17.00;;;;;-146.59;100.00;59519.28;3;130572006;139563220;-58
2022/05/23 02:50:05;;;;;;;;;;;;;;;-146.59;100.00;59519.28;2;157567442;157567442;-57
2022/05/23 02:52:50;;;;;;;;;25.00;22.75;;;;;-146.59;100.00;59519.28;4284605;28;22093088;-54
2022/05/23 02:55:34;;;;;;;;;24.50;23.50;;;;;-146.59;100.00;59519.28;5059627;28;51994;-59
2022/05/23 02:58:19;;;;;;;;;26.75;22.75;;;;;-146.59;100.00;59519.28;5059552;28;51092;-56
2022/05/23 03:01:03;;;;;;;;;30.75;27.00;;;;;-146.59;100.00;59519.28;5060243;28;51012;-56
2022/05/23 03:03:49;;;;;;;;;29.75;23.25;;;;;-146.59;100.00;59519.28;5059796;28;51350;-56
2022/05/23 03:06:33;;;;;;;;;24.50;22.00;;;;;-146.59;100.00;59519.28;5059655;28;51148;-53
2022/05/23 03:09:17;;;;;;;;;21.50;20.25;;;;;-146.59;100.00;59519.28;5059835;28;51107;-56
2022/05/23 03:12:02;;;;;;;;;21.00;17.25;;;;;-146.59;100.00;59519.28;5059881;28;51180;-57
2022/05/23 03:14:47;;;;;;;;;27.25;24.25;;;;;-146.59;100.00;59519.28;5058389;28;51336;-60
2022/05/23 03:17:32;;;;;;;;;23.75;23.25;;;;;-146.59;100.00;59519.28;5059518;28;51176;-59
2022/05/23 03:20:16;;;;;;;;;27.00;25.25;;;;;-146.59;100.00;59519.28;5055749;28;51122;-58
2022/05/23 03:29:09;;;;;;;;;25.50;23.00;;;;;-146.59;100.00;59519.28;5038286;28;51130;-59
2022/05/23 03:31:54;;;;;;;;;26.00;24.75;;;;;-146.59;100.00;59519.28;5038175;28;51451;-58
2022/05/23 03:34:39;;;;;;;;;26.25;22.00;;;;;-146.59;100.00;59519.28;5038031;28;51178;-56
2022/05/23 03:37:24;;;;;;;;;24.00;22.25;;;;;-146.59;100.00;59519.28;5056779;28;51335;-59
2022/05/23 03:40:09;;;;;;;;;22.75;19.50;;;;;-146.59;100.00;59519.28;5059345;28;51133;-57
2022/05/23 03:42:55;;;;;;;;;27.75;22.75;;;;;-146.59;100.00;59519.28;5058831;28;51214;-57
2022/05/23 03:45:40;;;;;;;;;24.25;22.75;;;;;-146.59;100.00;59519.28;5059499;28;51517;-57
2022/05/23 03:48:24;;;;;;;;;27.50;25.25;;;;;-146.59;100.00;59519.28;5058066;28;51170;-55
2022/05/23 03:51:09;;;;;;;;;31.25;27.75;;;;;-146.59;100.00;59519.28;5059543;28;51513;-57
2022/05/23 03:53:54;;;;;;;;;28.50;26.50;;;;;-146.59;100.00;59519.28;5059044;28;51542;-58
2022/05/23 03:56:39;;;;;;;;;25.75;25.00;;;;;-146.59;100.00;59519.28;5057906;28;51703;-59
2022/05/23 03:59:23;;;;;;;;;25.00;24.00;;;;;-146.59;100.00;59519.28;5062978;28;51131;-58
2022/05/23 04:02:08;;;;;;;;;22.00;19.00;;;;;-146.59;100.00;59519.28;5063192;28;50985;-57
2022/05/23 04:04:52;;;;;;;;;24.75;22.50;;;;;-146.59;100.00;59519.28;5061892;28;51542;-58
2022/05/23 04:07:39;;;;;;;;;31.00;22.50;;;;;-146.59;100.00;59519.28;5062241;28;51933;-57
2022/05/23 04:10:23;;;;;;;;;6.50;4.75;;;;;-146.59;100.00;59519.28;5062972;28;51502;-55
2022/05/23 04:13:08;;;;;;;;;28.50;24.25;;;;;-146.59;100.00;59519.28;5062551;28;51151;-58
2022/05/23 04:15:53;;;;;;;;;26.75;23.25;;;;;-146.59;100.00;59519.28;5063348;28;51052;-57
2022/05/23 04:18:37;;;;;;;;;29.00;25.50;;;;;-146.59;100.00;59519.28;5062061;28;51430;-57
2022/05/23 04:21:22;;;;;;;;;26.50;22.75;;;;;-146.59;100.00;59519.28;5062651;28;51554;-59
2022/05/23 04:24:07;;;;;;;;;30.75;28.25;;;;;-146.59;100.00;59519.28;5062089;28;53023;-56
2022/05/23 04:26:54;;;;;;;;;30.00;24.25;;;;;-146.59;100.00;59519.28;5058043;28;51075;-57
2022/05/23 04:29:38;;;;;;;;;31.25;28.50;;;;;-146.59;100.00;59519.28;5062613;28;51446;-57
2022/05/23 04:35:26;;;;;;;;;23.25;22.75;;;;;-146.59;100.00;59519.28;5062578;28;51127;-57
2022/05/23 04:38:11;;;;;;;;;24.25;22.75;;;;;-146.59;100.00;59519.28;5055667;28;51111;-57
2022/05/23 04:40:57;;;;;;;;;22.50;22.25;;;;;-146.59;100.00;59519.28;5061742;28;51046;-56
2022/05/23 04:43:41;;;;;;;;;27.50;22.00;;;;;-146.59;100.00;59519.28;5062471;28;51405;-57
2022/05/23 04:46:27;;;;;;;;;25.25;25.25;;;;;-146.59;100.00;59519.28;5062466;28;51009;-57
2022/05/23 04:52:16;;;;;;;;;29.25;23.50;;;;;-146.59;100.00;59519.28;5062553;28;51432;-56
2022/05/23 04:55:00;;;;;;;;;27.75;23.50;;;;;-146.59;100.00;59519.28;5061869;28;51334;-59
2022/05/23 04:57:46;;;;;;;;;34.25;27.75;;;;;-146.59;100.00;59519.28;5061940;28;51253;-58
2022/05/23 05:00:31;;;;;;;;;34.00;27.00;;;;;-146.59;100.00;59519.28;5062278;28;51151;-56
2022/05/23 05:03:16;;;;;;;;;26.75;26.25;;;;;-146.59;100.00;59519.28;5062045;28;51187;-58
2022/05/23 05:06:00;;;;;;;;;29.50;26.75;;;;;-146.59;100.00;59519.28;5061898;28;51239;-58
2022/05/23 05:08:45;;;;;;;;;27.50;26.25;;;;;-146.59;100.00;59519.28;5060655;28;51550;-57
2022/05/23 05:11:29;;;;;;;;;31.00;29.00;;;;;-146.59;100.00;59519.28;5061826;28;51072;-57
2022/05/23 05:14:14;;;;;;;;;31.25;25.75;;;;;-146.59;100.00;59519.28;5061445;28;51056;-57
2022/05/23 05:16:58;;;;;;;;;29.00;29.00;;;;;-146.59;100.00;59519.28;5062222;28;51212;-54
2022/05/23 05:19:43;;;;;;;;;32.25;29.25;;;;;-146.59;100.00;59519.28;5061952;28;51486;-59
2022/05/23 05:22:27;;;;;;;;;34.25;31.25;;;;;-146.59;100.00;59519.28;5061576;28;51197;-56
2022/05/23 05:25:13;;;;;;;;;33.25;31.25;;;;;-146.59;100.00;59519.28;5061438;28;51571;-55
2022/05/23 05:27:58;;;;;;;;;37.75;33.00;;;;;-146.59;100.00;59519.28;5060330;28;51094;-57
2022/05/23 05:30:47;;;;;;;;;36.75;32.25;;;;;-146.59;100.00;59519.28;5061020;28;51059;-56
2022/05/23 05:33:47;;;;;;;;;32.00;29.50;;;;;-146.59;100.00;59519.28;5061157;28;51007;-56
2022/05/23 05:36:36;;;;;;;;;36.25;32.25;;;;;-146.59;100.00;59519.28;5047823;28;51242;-55
2022/05/23 05:39:26;;;;;;;;;38.00;31.50;;;;;-146.59;100.00;59519.28;5060039;28;51022;-56
2022/05/23 05:42:21;;;;;;;;;35.25;30.25;;;;;-146.59;100.00;59519.28;5061540;28;51125;-54
2022/05/23 05:45:11;;;;;;;;;34.75;29.75;;;;;-146.59;100.00;59519.28;5060390;28;51556;-54
2022/05/23 05:47:57;;;;;;;;;41.75;33.00;;;;;-146.59;100.00;59519.28;5060687;28;51196;-56
2022/05/23 05:50:42;;;;;;;;;44.00;35.25;;;;;-146.59;100.00;59519.28;5061339;28;51284;-60
2022/05/23 05:53:32;;;;;;;;;47.25;38.25;;;;;-146.59;100.00;59519.28;5055738;28;51106;-58
2022/05/23 05:56:17;;;;;;;;;46.25;38.25;;;;;-146.59;100.00;59519.28;5061009;28;51097;-56
2022/05/23 05:59:02;;;;;;;;;43.25;34.75;;;;;-146.59;100.00;59519.28;5059786;28;51365;-56
2022/05/23 06:01:47;;;;;;;;;43.75;36.00;;;;;-146.59;100.00;59519.28;5059998;28;51211;-56
2022/05/23 06:04:32;;;;;;;;;49.25;39.00;;;;;-146.59;100.00;59519.28;5060217;28;51046;-57
2022/05/23 06:13:36;;;;;;;;;51.75;42.75;;;;;-146.59;100.00;59519.28;5060456;28;51437;-53
2022/05/23 06:16:21;;;;;;;;;46.50;39.25;;;;;-146.59;100.00;59519.28;5047060;28;51222;-54
2022/05/23 06:19:21;;;;;;;;;46.00;37.25;;;;;-146.59;100.00;59519.28;5040889;28;51136;-54
2022/05/23 06:22:06;;;;;;;;;45.00;38.25;;;;;-146.59;100.00;59519.28;5055401;28;51103;-53
2022/05/23 06:24:51;;;;;;;;;45.25;37.50;;;;;-146.59;100.00;59519.28;5058291;28;51475;-55
2022/05/23 06:27:35;;;;;;;;;46.50;38.25;;;;;-146.59;100.00;59519.28;5060111;28;51268;-56
2022/05/23 06:30:20;;;;;;;;;44.25;34.50;;;;;-146.59;100.00;59519.28;5060358;28;51314;-54
2022/05/23 06:33:05;;;;;;;;;41.50;33.75;;;;;-146.59;100.00;59519.28;5060227;28;51184;-53
2022/05/23 06:35:50;;;;;;;;;44.50;36.75;;;;;-146.59;100.00;59519.28;5058753;28;51213;-54
2022/05/23 06:38:36;;;;;;;;;44.75;36.25;;;;;-146.59;100.00;59519.28;5055554;28;51025;-55
2022/05/23 06:41:20;;;;;;;;;44.25;33.75;;;;;-146.59;100.00;59519.28;5060004;28;51841;-50
2022/05/23 06:44:05;;;;;;;;;47.25;37.75;;;;;-146.59;100.00;59519.28;5059816;28;51271;-54
2022/05/23 06:46:50;;;;;;;;;45.25;34.50;;;;;-146.59;100.00;59519.28;5060053;28;51073;-54
2022/05/23 06:49:34;;;;;;;;;43.50;35.25;;;;;-146.59;100.00;59519.28;5059894;28;51522;-54
2022/05/23 06:52:19;;;;;;;;;44.25;33.50;;;;;-146.59;100.00;59519.28;5059739;28;51151;-54
2022/05/23 06:55:04;;;;;;;;;38.75;32.75;;;;;-146.59;100.00;59519.28;5059883;28;51181;-54
2022/05/23 06:57:48;;;;;;;;;45.50;37.00;;;;;-146.59;100.00;59519.28;5060418;28;51103;-54
2022/05/23 07:00:33;;;;;;;;;43.50;34.75;;;;;-146.59;100.00;59519.28;5059761;28;51146;-55
2022/05/23 07:03:18;;;;;;;;;46.00;35.25;;;;;-146.59;100.00;59519.28;5058826;28;51365;-53
2022/05/23 07:12:23;;;;;;;;;45.00;35.25;;;;;-146.59;100.00;59519.28;5055971;28;51184;-54
2022/05/23 07:15:08;;;;;;;;;37.50;32.25;;;;;-146.59;100.00;59519.28;5058409;28;51196;-54
2022/05/23 07:17:53;;;;;;;;;38.25;34.50;;;;;-146.59;100.00;59519.28;5053906;28;51702;-56
2022/05/23 07:20:38;;;;;;;;;37.00;32.25;;;;;-146.59;100.00;59519.28;5059003;28;51145;-54
2022/05/23 07:23:23;;;;;;;;;30.25;28.50;;;;;-146.59;100.00;59519.28;5059653;28;51052;-53
2022/05/23 07:26:09;;;;;;;;;31.50;30.25;;;;;-146.59;100.00;59519.28;5057258;28;51434;-56
2022/05/23 07:28:54;;;;;;;;;39.00;32.00;;;;;-146.59;100.00;59519.28;5059338;28;51225;-54
2022/05/23 07:31:39;;;;;;;;;37.75;30.50;;;;;-146.59;100.00;59519.28;5058645;28;51199;-53
2022/05/23 07:34:23;;;;;;;;;35.50;32.00;;;;;-146.59;100.00;59519.28;5058594;28;51096;-55
2022/05/23 07:37:09;;;;;;;;;42.75;31.75;;;;;-146.59;100.00;59519.28;5059114;28;51098;-56
2022/05/23 07:39:54;;;;;;;;;39.50;31.75;;;;;-146.59;100.00;59519.28;5058292;28;51036;-56
2022/05/23 07:42:39;;;;;;;;;36.50;28.75;;;;;-146.59;100.00;59519.28;5058523;28;51711;-54
2022/05/23 07:45:23;;;;;;;;;37.25;32.00;;;;;-146.59;100.00;59519.28;5057830;28;51262;-54
2022/05/23 07:48:08;;;;;;;;;34.25;29.75;;;;;-146.59;100.00;59519.28;5059009;28;51035;-54
2022/05/23 07:50:52;;;;;;;;;32.50;28.75;;;;;-146.59;100.00;59519.28;5058761;28;51642;-54
2022/05/23 08:02:48;;;;;;;;;50.75;41.75;;;;;-146.59;100.00;59519.28;5058494;28;51150;-53
2022/05/23 08:05:33;;;;;;;;;44.00;34.50;;;;;-146.59;100.00;59519.28;5058282;28;52963;-56
2022/05/23 08:08:17;;;;;;;;;37.50;32.75;;;;;-146.59;100.00;59519.28;5058457;28;51724;-55
2022/05/23 08:11:05;;;;;;;;;34.75;29.50;;;;;-146.59;100.00;59519.28;5057215;28;51416;-55
2022/05/23 08:13:53;;;;;;;;;29.75;29.25;;;;;-146.59;100.00;59519.28;5058482;28;51087;-56
2022/05/23 08:16:38;;;;;;;;;46.50;37.75;;;;;-146.59;100.00;59519.28;5056917;28;51526;-56
2022/05/23 08:19:23;;;;;;;;;42.25;33.50;;;;;-146.59;100.00;59519.28;5058594;28;51151;-54
2022/05/23 08:22:08;;;;;;;;;37.50;29.50;;;;;-146.59;100.00;59519.28;5057122;28;51664;-56
2022/05/23 08:24:53;;;;;;;;;33.00;29.50;;;;;-146.59;100.00;59519.28;5058360;28;51128;-55
2022/05/23 08:27:37;;;;;;;;;34.50;28.25;;;;;-146.59;100.00;59519.28;5058037;28;51191;-55
2022/05/23 08:30:23;;;;;;;;;24.00;19.25;;;;;-146.59;100.00;59519.28;5058497;28;51526;-56
2022/05/23 08:33:08;;;;;;;;;25.25;22.25;;;;;-146.59;100.00;59519.28;5057761;28;51272;-56
2022/05/23 08:35:53;;;;;;;;;26.00;21.75;;;;;-146.59;100.00;59519.28;5058031;28;51205;-55
2022/05/23 08:38:37;;;;;;;;;27.50;23.25;;;;;-146.59;100.00;59519.28;5058847;28;51331;-55
2022/05/23 08:41:27;;;;;;;;;24.25;20.25;;;;;-146.59;100.00;59519.28;5057796;28;51156;-54
2022/05/23 08:44:32;;;;;;;;;25.25;23.00;;;;;-146.59;100.00;59519.28;5059057;28;51188;-55
2022/05/23 08:47:55;;;;;;;;;26.25;24.25;;;;;-146.59;100.00;59519.28;5060175;28;51347;-55
2022/05/23 08:51:18;;;;;;;;;15.25;12.25;;;;;-146.59;100.00;59519.28;5061117;28;51184;-54
2022/05/23 08:54:25;;;;;;;;;14.75;13.75;;;;;-146.59;100.00;59519.28;5061305;28;51055;-54
2022/05/23 08:57:23;;;;;;;;;19.75;17.50;;;;;-146.59;100.00;59519.28;5061160;28;51583;-53
2022/05/23 09:00:11;;;;;;;;;17.50;16.25;;;;;-146.59;100.00;59519.28;5061146;28;51454;-55
2022/05/23 09:03:03;;;;;;;;;18.75;15.75;;;;;-146.59;100.00;59519.28;5060404;28;51147;-55
2022/05/23 09:05:55;;;;;;;;;15.00;12.75;;;;;-146.59;100.00;59519.28;5060731;28;51614;-55
2022/05/23 09:08:51;;;;;;;;;16.25;13.75;;;;;-146.59;100.00;59519.28;5061305;28;51108;-56
2022/05/23 09:11:42;;;;;;;;;12.25;12.25;;;;;-146.59;100.00;59519.28;5060694;28;51150;-56
2022/05/23 09:14:26;;;;;;;;;12.00;12.00;;;;;-146.59;100.00;59519.28;5060294;28;51591;-55
2022/05/23 09:17:40;;;;;;;;;13.75;13.00;;;;;-146.59;100.00;59519.28;5061278;28;51031;-55
2022/05/23 09:20:38;;;;;;;;;15.25;11.25;;;;;-146.59;100.00;59519.28;5054268;28;51136;-55
2022/05/23 09:23:29;;;;;;;;;10.50;9.00;;;;;-146.59;100.00;59519.28;5060373;28;51248;-55
2022/05/23 09:26:27;;;;;;;;;13.00;10.50;;;;;-146.59;100.00;59519.28;5061363;28;51118;-53
2022/05/23 09:29:12;;;;;;;;;13.25;12.00;;;;;-146.59;100.00;59519.28;5061033;28;51547;-54
2022/05/23 09:32:08;;;;;;;;;10.25;9.50;;;;;-146.59;100.00;59519.28;5060668;28;51115;-56
2022/05/23 09:35:10;;;;;;;;;10.50;10.50;;;;;-146.59;100.00;59519.28;5059385;28;51459;-55
2022/05/23 09:38:14;;;;;;;;;10.50;8.50;;;;;-146.59;100.00;59519.28;5060466;28;51308;-55
2022/05/23 09:40:59;;;;;;;;;11.75;10.50;;;;;-146.59;100.00;59519.28;5058068;28;51210;-55
2022/05/23 09:50:01;;;;;;;;;6.50;6.50;;;;;-146.59;100.00;59519.28;5059740;28;51071;-53
2022/05/23 09:52:50;;;;;;;;;6.75;5.50;;;;;-146.59;100.00;59519.28;5060268;28;51221;-54
2022/05/23 09:55:37;;;;;;;;;5.00;5.00;;;;;-146.59;100.00;59519.28;5059686;28;51243;-55
2022/05/23 09:58:31;;;;;;;;;4.75;4.25;;;;;-146.59;100.00;59519.28;5060476;28;51130;-54
2022/05/23 10:01:29;;;;;;;;;5.50;5.50;;;;;-146.59;100.00;59519.28;5059003;28;51157;-55
2022/05/23 10:04:15;;;;;;;;;5.00;5.00;;;;;-146.59;100.00;59519.28;5059207;28;51142;-54
2022/05/23 10:07:00;;;;;;;;;6.50;4.00;;;;;-146.59;100.00;59519.28;5059874;28;51548;-55
2022/05/23 10:09:58;;;;;;;;;9.75;9.75;;;;;-146.59;100.00;59519.28;5059991;28;51103;-53
2022/05/23 10:12:42;;;;;;;;;11.25;7.25;;;;;-146.59;100.00;59519.28;5056003;28;51185;-52
2022/05/23 10:15:32;;;;;;;;;9.00;6.00;;;;;-146.59;100.00;59519.28;5060597;28;51094;-56
2022/05/23 10:18:26;;;;;;;;;6.75;6.75;;;;;-146.59;100.00;59519.28;5059351;28;51066;-55
2022/05/23 10:21:35;;;;;;;;;5.50;4.50;;;;;-146.59;100.00;59519.28;5054763;28;51154;-54
2022/05/23 10:24:26;;;;;;;;;5.50;5.25;;;;;-146.59;100.00;59519.28;5059321;28;51310;-55
2022/05/23 10:27:15;;;;;;;;;7.00;6.25;;;;;-146.59;100.00;59519.28;5043171;28;51218;-54
2022/05/23 10:30:03;;;;;;;;;9.50;6.50;;;;;-146.59;100.00;59519.28;5052088;28;51290;-56
2022/05/23 10:32:51;;;;;;;;;5.25;4.25;;;;;-146.59;100.00;59519.28;5058626;28;51199;-54
2022/05/23 10:35:41;;;;;;;;;7.00;5.50;;;;;-146.59;100.00;59519.28;5058601;28;51179;-54
2022/05/23 10:45:06;;;;;;;;;3.50;3.50;;;;;-146.59;100.00;59519.28;5058751;28;51341;-56
2022/05/23 10:48:21;;;;;;;;;4.00;4.00;;;;;-146.59;100.00;59519.28;5058794;28;51180;-54
2022/05/23 10:51:36;;;;;;;;;6.50;4.00;;;;;-146.59;100.00;59519.28;5059340;28;51085;-55
2022/05/23 10:54:39;;;;;;;;;5.25;3.50;;;;;-146.59;100.00;59519.28;5059471;28;51540;-53
2022/05/23 10:57:33;;;;;;;;;4.50;4.50;;;;;-146.59;100.00;59519.28;5059065;28;51145;-55
2022/05/23 11:00:22;;;;;;;;;5.50;5.00;;;;;-146.59;100.00;59519.28;5058593;28;51084;-56
2022/05/23 11:03:09;;;;;;;;;5.75;5.00;;;;;-146.59;100.00;59519.28;5059718;28;51168;-55
2022/05/23 11:06:03;;;;;;;;;5.75;4.50;;;;;-146.59;100.00;59519.28;5059269;28;51624;-56
2022/05/23 11:08:57;;;;;;;;;3.00;3.00;;;;;-146.59;100.00;59519.28;5057582;28;51160;-54
2022/05/23 11:12:07;;;;;;;;;4.50;4.50;;;;;-146.59;100.00;59519.28;5058697;28;51182;-56
2022/05/23 11:14:58;;;;;;;;;5.50;5.50;;;;;-146.59;100.00;59519.28;5055510;28;51205;-55
2022/05/23 11:17:58;;;;;;;;;6.50;4.75;;;;;-146.59;100.00;59519.28;5059622;28;51199;-54
2022/05/23 11:20:43;;;;;;;;;9.50;8.25;;;;;-146.59;100.00;59519.28;5058828;28;51394;-55
2022/05/23 11:23:53;;;;;;;;;10.50;8.75;;;;;-146.59;100.00;59519.28;5058834;28;51143;-55
2022/05/23 11:33:41;;;;;;;;;4.75;4.75;;;;;-146.59;100.00;59519.28;5058128;28;51092;-53
2022/05/23 11:36:23;;;;;;;;;7.25;5.75;;;;;-146.59;100.00;59519.28;5058993;28;51092;-56
2022/05/23 11:39:51;;;;;;;;;5.75;5.00;;;;;-146.59;100.00;59519.28;5057287;28;51477;-54
2022/05/23 11:43:00;;;;;;;;;6.00;4.00;;;;;-146.59;100.00;59519.28;5036526;28;51293;-56
2022/05/23 11:46:05;;;;;;;;;5.50;5.00;;;;;-146.59;100.00;59519.28;5036075;28;51607;-56
2022/05/23 11:48:56;;;;;;;;;6.00;5.50;;;;;-146.59;100.00;59519.28;5052063;28;51101;-53
2022/05/23 11:51:41;;;;;;;;;9.00;6.75;;;;;-146.59;100.00;59519.28;5055893;28;51216;-56
2022/05/23 11:54:34;;;;;;;;;8.00;5.50;;;;;-146.59;100.00;59519.28;5045269;28;51451;-56
2022/05/23 11:57:41;;;;;;;;;8.00;6.00;;;;;-146.59;100.00;59519.28;5058518;28;51028;-56
2022/05/23 12:00:35;;;;;;;;;5.00;5.00;;;;;-146.59;100.00;59519.28;5057417;28;51135;-56
2022/05/23 12:03:20;;;;;;;;;11.50;8.00;;;;;-146.59;100.00;59519.28;5058384;28;51094;-56
2022/05/23 12:06:16;;;;;;;;;10.00;7.25;;;;;-146.59;100.00;59519.28;5058745;28;51354;-55
2022/05/23 12:09:12;;;;;;;;;8.75;5.75;;;;;-146.59;100.00;59519.28;5059255;28;51068;-55
2022/05/23 12:12:26;;;;;;;;;8.75;7.00;;;;;-146.59;100.00;59519.28;5058935;28;51166;-55
2022/05/23 12:15:12;;;;;;;;;6.25;5.00;;;;;-146.59;100.00;59519.28;5052046;28;51491;-56
2022/05/23 12:17:58;;;;;;;;;10.00;7.00;;;;;-146.59;100.00;59519.28;5049089;28;51167;-56
2022/05/23 12:20:45;;;;;;;;;8.25;6.75;;;;;-146.59;100.00;59519.28;5060636;28;51405;-57
2022/05/23 12:23:44;;;;;;;;;9.25;7.25;;;;;-146.59;100.00;59519.28;5062594;28;51183;-56
2022/05/23 12:26:33;;;;;;;;;10.50;8.50;;;;;-146.59;100.00;59519.28;5061416;28;51602;-56
2022/05/23 12:29:25;;;;;;;;;7.00;7.00;;;;;-146.59;100.00;59519.28;5061282;28;51089;-56
2022/05/23 12:32:25;;;;;;;;;13.75;10.00;;;;;-146.59;100.00;59519.28;5062074;28;51602;-56
2022/05/23 12:35:18;;;;;;;;;8.75;6.50;;;;;-146.59;100.00;59519.28;5054751;28;51077;-57
2022/05/23 12:38:27;;;;;;;;;8.50;7.75;;;;;-146.59;100.00;59519.28;5054730;28;51217;-56
2022/05/23 12:41:17;;;;;;;;;14.50;10.75;;;;;-146.59;100.00;59519.28;5062275;28;51585;-56
2022/05/23 12:44:30;;;;;;;;;13.75;7.00;;;;;-146.59;100.00;59519.28;5062442;28;51250;-57
2022/05/23 12:47:35;;;;;;;;;7.50;7.00;;;;;-146.59;100.00;59519.28;5062126;28;51131;-57
2022/05/23 12:50:48;;;;;;;;;7.00;6.00;;;;;-146.59;100.00;59519.28;5062546;28;51127;-54
2022/05/23 12:53:38;;;;;;;;;6.00;5.50;;;;;-146.59;100.00;59519.28;5061508;28;51917;-55
2022/05/23 12:56:53;;;;;;;;;6.00;5.00;;;;;-146.59;100.00;59519.28;5062154;28;51008;-55
2022/05/23 12:59:59;;;;;;;;;7.25;5.50;;;;;-146.59;100.00;59519.28;5046493;28;51444;-55
2022/05/23 13:03:38;;;;;;;;;5.00;5.00;;;;;-146.59;100.00;59519.28;5060725;28;51205;-55
2022/05/23 13:06:33;;;;;;;;;7.00;3.25;;;;;-146.59;100.00;59519.28;5044626;28;51174;-55
2022/05/23 13:09:23;;;;;;;;;3.00;3.00;;;;;-146.59;100.00;59519.28;5060524;28;51086;-54
2022/05/23 13:12:12;;;;;;;;;3.75;3.00;;;;;-146.59;100.00;59519.28;5061818;28;51164;-52
2022/05/23 13:15:00;;;;;;;;;3.75;3.50;;;;;-146.59;100.00;59519.28;5060252;28;51467;-52
2022/05/23 13:17:45;;;;;;;;;7.50;3.75;;;;;-146.59;100.00;59519.28;5060917;28;51306;-55
2022/05/23 13:23:34;;;;;;;;;4.75;3.25;;;;;-146.59;100.00;59519.28;5059189;28;51242;-54
2022/05/23 13:26:20;;;;;;;;;5.50;5.00;;;;;-146.59;100.00;59519.28;5059708;28;51454;-52
2022/05/23 13:29:10;;;;;;;;;4.50;4.00;;;;;-146.59;100.00;59519.28;5058424;28;51111;-53
2022/05/23 13:32:16;;;;;;;;;4.25;3.00;;;;;-146.59;100.00;59519.28;5057604;28;51350;-52
2022/05/23 13:35:01;;;;;;;;;5.75;2.25;;;;;-146.59;100.00;59519.28;5060094;28;51459;-55
2022/05/23 13:37:46;;;;;;;;;5.00;3.75;;;;;-146.59;100.00;59519.28;5060690;28;51273;-54
2022/05/23 13:40:30;;;;;;;;;1.00;1.00;;;;;-146.59;100.00;59519.28;5061322;28;51479;-55
2022/05/23 13:43:18;;;;;;;;;2.50;2.00;;;;;-146.59;100.00;59519.28;5060980;28;51344;-54
2022/05/23 13:46:15;;;;;;;;;2.00;2.00;;;;;-146.59;100.00;59519.28;5057452;28;51232;-53
2022/05/23 13:49:22;;;;;;;;;5.00;2.00;;;;;-146.59;100.00;59519.28;5051116;28;51224;-55
2022/05/23 13:52:11;;;;;;;;;2.75;1.75;;;;;-146.59;100.00;59519.28;5060863;28;51085;-55
2022/05/23 13:55:20;;;;;;;;;3.25;3.00;;;;;-146.59;100.00;59519.28;5059962;28;51098;-52
2022/05/23 13:58:11;;;;;;;;;2.75;1.75;;;;;-146.59;100.00;59519.28;5061224;28;51139;-53
2022/05/23 14:01:01;;;;;;;;;3.00;3.00;;;;;-146.59;100.00;59519.28;5059343;28;51248;-54
2022/05/23 14:04:00;;;;;;;;;0.75;0.00;;;;;-146.59;100.00;59519.28;5060602;28;51123;-54
2022/05/23 14:06:56;;;;;;;;;4.25;2.25;;;;;-146.59;100.00;59519.28;5053704;28;51091;-55
2022/05/23 14:09:43;;;;;;;;;2.00;2.00;;;;;-146.59;100.00;59519.28;5058003;28;51273;-54
2022/05/23 14:12:34;;;;;;;;;8.50;4.50;;;;;-146.59;100.00;59519.28;5060510;28;51110;-53
2022/05/23 14:15:25;;;;;;;;;3.50;2.25;;;;;-146.59;100.00;59519.28;5061411;28;51211;-55
2022/05/23 14:18:16;;;;;;;;;1.75;1.00;;;;;-146.59;100.00;59519.28;5060688;28;51566;-55
2022/05/23 14:21:01;;;;;;;;;2.25;1.50;;;;;-146.59;100.00;59519.28;5060157;28;51162;-54
2022/05/23 14:23:53;;;;;;;;;3.25;2.75;;;;;-146.59;100.00;59519.28;5061562;28;51078;-55
2022/05/23 14:26:38;;;;;;;;;0.50;0.50;;;;;-146.59;100.00;59519.28;5060243;28;51122;-54
2022/05/23 14:29:23;;;;;;;;;1.75;1.00;;;;;-146.59;100.00;59519.28;5052756;28;51196;-54
2022/05/23 14:32:13;;;;;;;;;5.75;1.75;;;;;-146.59;100.00;59519.28;5060457;28;51128;-56
2022/05/23 14:35:19;;;;;;;;;5.50;3.25;;;;;-146.59;100.00;59519.28;5060668;28;51193;-55
2022/05/23 14:38:05;;;;;;;;;4.00;2.25;;;;;-146.59;100.00;59519.28;5059019;28;51127;-55
2022/05/23 14:40:49;;;;;;;;;7.75;3.75;;;;;-146.59;100.00;59519.28;5058732;28;51182;-53
2022/05/23 14:43:35;;;;;;;;;6.25;3.50;;;;;-146.59;100.00;59519.28;5058489;28;51185;-55
2022/05/23 14:46:25;;;;;;;;;4.00;4.00;;;;;-146.59;100.00;59519.28;5059727;28;51167;-53
2022/05/23 14:49:16;;;;;;;;;1.75;1.75;;;;;-146.59;100.00;59519.28;5061149;28;51143;-51